Time;durP1;ratioP1;P1;durP2;ratioP2;P2;SDS_P1;SDS_P2;PMS_P1;PMS_P2;Temp;Humidity;BMP_temperature;BMP_pressure;BME280_temperature;BME280_humidity;BME280_pressure;Samples;Min_cycle;Max_cycle;Signal;HPM_P1;HPM_P2
2021/01/18 00:00:56;;;;;;;34.05;4.65;;;2.60;91.30;;;;;;5119537;27;20547;-75
2021/01/18 00:03:22;;;;;;;32.75;5.28;;;2.60;91.30;;;;;;5122158;27;20047;-75
2021/01/18 00:05:48;;;;;;;31.58;5.70;;;2.60;91.20;;;;;;5106540;27;20035;-75
2021/01/18 00:08:14;;;;;;;22.02;5.53;;;2.60;91.40;;;;;;5119994;27;20460;-75
2021/01/18 00:10:39;;;;;;;27.45;5.57;;;2.60;91.30;;;;;;5109460;27;22234;-74
2021/01/18 00:13:05;;;;;;;27.75;4.30;;;2.50;91.30;;;;;;5122485;27;20045;-75
2021/01/18 00:15:31;;;;;;;29.10;5.13;;;2.50;91.30;;;;;;5125756;27;20407;-75
2021/01/18 00:17:58;;;;;;;33.58;5.00;;;2.50;91.30;;;;;;5125932;27;20039;-75
2021/01/18 00:20:24;;;;;;;27.13;4.20;;;2.50;91.30;;;;;;5109499;27;20042;-74
2021/01/18 00:22:50;;;;;;;28.02;4.60;;;2.40;91.30;;;;;;5120631;27;20027;-75
2021/01/18 00:25:21;;;;;;;27.95;5.45;;;2.40;91.30;;;;;;5121275;27;20117;-75
2021/01/18 00:27:47;;;;;;;40.75;6.40;;;2.40;91.30;;;;;;5124518;27;20065;-75
2021/01/18 00:30:17;;;;;;;21.50;4.07;;;2.30;91.40;;;;;;5119828;27;20538;-75
2021/01/18 00:32:43;;;;;;;31.52;4.78;;;2.30;91.30;;;;;;5137931;27;20642;-75
2021/01/18 00:35:11;;;;;;;27.13;4.38;;;2.30;91.40;;;;;;5124497;27;20069;-75
2021/01/18 00:37:41;;;;;;;27.65;3.67;;;2.30;91.40;;;;;;5120295;27;20047;-75
2021/01/18 00:40:09;;;;;;;29.52;4.20;;;2.30;91.40;;;;;;5120616;27;20043;-75
2021/01/18 00:42:35;;;;;;;27.92;3.97;;;2.30;91.50;;;;;;5120727;27;20038;-75
2021/01/18 00:45:01;;;;;;;42.78;5.72;;;2.30;91.50;;;;;;5126457;27;20031;-75
2021/01/18 00:47:26;;;;;;;31.63;4.72;;;2.30;91.60;;;;;;5121418;27;20028;-74
2021/01/18 00:49:52;;;;;;;42.97;5.40;;;2.30;91.70;;;;;;5126203;27;20046;-75
2021/01/18 00:52:18;;;;;;;29.25;4.28;;;2.30;91.70;;;;;;5105958;27;20039;-75
2021/01/18 00:54:43;;;;;;;30.27;5.07;;;2.20;91.60;;;;;;5110776;27;20027;-74
2021/01/18 00:57:09;;;;;;;28.77;4.63;;;2.20;91.60;;;;;;5103185;27;20455;-75
2021/01/18 00:59:35;;;;;;;26.38;4.25;;;2.20;91.60;;;;;;5118882;27;20073;-75
2021/01/18 01:02:01;;;;;;;31.50;3.90;;;2.20;91.60;;;;;;5118617;27;20042;-75
2021/01/18 01:04:27;;;;;;;30.70;3.80;;;2.20;91.50;;;;;;5124980;27;20110;-75
2021/01/18 01:06:53;;;;;;;37.08;4.78;;;2.20;91.50;;;;;;5124221;27;20154;-75
2021/01/18 01:09:18;;;;;;;32.72;5.13;;;2.20;91.60;;;;;;5106340;27;20034;-75
2021/01/18 01:11:45;;;;;;;22.73;4.20;;;2.20;91.50;;;;;;5118779;27;20044;-75
2021/01/18 01:14:12;;;;;;;28.80;4.05;;;2.20;91.60;;;;;;5110402;27;20698;-75
2021/01/18 01:16:38;;;;;;;23.58;3.90;;;2.20;91.50;;;;;;5109471;27;20039;-75
2021/01/18 01:19:04;;;;;;;23.15;4.03;;;2.20;91.60;;;;;;5126018;27;20039;-75
2021/01/18 01:21:30;;;;;;;26.90;4.72;;;2.20;91.60;;;;;;5125153;27;20035;-75
2021/01/18 01:23:56;;;;;;;32.03;4.82;;;2.20;91.60;;;;;;5126296;27;20793;-75
2021/01/18 01:26:22;;;;;;;20.73;3.42;;;2.20;91.60;;;;;;5121884;27;20031;-75
2021/01/18 01:28:48;;;;;;;20.25;3.05;;;2.20;91.50;;;;;;5125585;27;20038;-75
2021/01/18 01:31:14;;;;;;;24.70;3.75;;;2.20;91.50;;;;;;5131225;27;20043;-76
2021/01/18 01:33:40;;;;;;;25.13;3.42;;;2.20;91.60;;;;;;5132916;27;20102;-76
2021/01/18 01:36:06;;;;;;;27.08;3.95;;;2.20;91.50;;;;;;5132694;27;20570;-76
2021/01/18 01:38:34;;;;;;;26.63;3.60;;;2.10;91.40;;;;;;5144447;27;20104;-76
2021/01/18 01:41:00;;;;;;;21.77;3.50;;;2.10;91.50;;;;;;5133003;27;20090;-76
2021/01/18 01:43:26;;;;;;;23.42;3.20;;;2.10;91.50;;;;;;5138224;27;20351;-77
2021/01/18 01:45:52;;;;;;;22.23;3.08;;;2.10;91.50;;;;;;5138032;27;20084;-77
2021/01/18 01:48:19;;;;;;;21.77;3.67;;;2.00;91.40;;;;;;5130344;27;20040;-77
2021/01/18 01:50:46;;;;;;;28.02;3.88;;;2.00;91.40;;;;;;5134576;27;20042;-77
2021/01/18 01:53:28;;;;;;;23.70;3.47;;;2.00;91.50;;;;;;5129912;27;20035;-77
2021/01/18 01:55:55;;;;;;;26.73;3.78;;;1.90;91.40;;;;;;5121495;27;20034;-77
2021/01/18 01:58:22;;;;;;;19.95;3.08;;;1.90;91.30;;;;;;5125355;27;20046;-77
2021/01/18 02:00:49;;;;;;;21.50;2.85;;;1.90;91.30;;;;;;5133678;27;20039;-77
2021/01/18 02:03:27;;;;;;;20.10;4.07;;;1.80;91.30;;;;;;5138666;27;20031;-77
2021/01/18 02:05:54;;;;;;;23.17;5.10;;;1.80;91.30;;;;;;5129818;27;20029;-77
2021/01/18 02:08:20;;;;;;;18.33;4.22;;;1.70;91.40;;;;;;5140852;27;20620;-77
2021/01/18 02:10:45;;;;;;;25.40;5.68;;;1.70;91.20;;;;;;5120807;27;20031;-77
2021/01/18 02:13:48;;;;;;;26.15;3.40;;;1.70;91.20;;;;;;5132142;27;20359;-77
2021/01/18 02:16:24;;;;;;;25.25;3.95;;;1.60;91.30;;;;;;5124378;27;20501;-75
2021/01/18 02:18:55;;;;;;;28.17;4.53;;;1.60;91.50;;;;;;5125267;27;20084;-75
2021/01/18 02:21:58;;;;;;;31.17;4.93;;;1.60;91.50;;;;;;5125613;27;20047;-75
2021/01/18 02:24:49;;;;;;;19.08;4.18;;;1.60;91.50;;;;;;5126578;27;20119;-76
2021/01/18 02:27:33;;;;;;;30.77;3.65;;;1.60;91.40;;;;;;5125760;27;20043;-76
2021/01/18 02:30:27;;;;;;;23.00;3.72;;;1.60;91.50;;;;;;5123566;27;20050;-75
2021/01/18 02:33:30;;;;;;;18.33;3.42;;;1.60;91.40;;;;;;5124569;27;20474;-76
2021/01/18 02:36:04;;;;;;;15.90;4.10;;;1.50;91.40;;;;;;5123981;27;20041;-75
2021/01/18 02:39:04;;;;;;;30.95;3.88;;;1.50;91.30;;;;;;5126359;27;20031;-75
2021/01/18 02:41:46;;;;;;;15.20;3.33;;;1.50;91.40;;;;;;5127302;27;20042;-75
2021/01/18 02:44:20;;;;;;;31.27;4.78;;;1.50;91.40;;;;;;5128795;27;20046;-75
2021/01/18 02:46:48;;;;;;;22.25;3.22;;;1.50;91.40;;;;;;5126213;27;20525;-76
2021/01/18 02:49:17;;;;;;;24.05;3.50;;;1.50;91.40;;;;;;5128234;27;20035;-75
2021/01/18 02:51:49;;;;;;;30.10;5.07;;;1.50;91.40;;;;;;5127298;27;20074;-75
2021/01/18 02:54:15;;;;;;;23.08;4.85;;;1.50;91.40;;;;;;5126632;27;20098;-75
2021/01/18 02:56:49;;;;;;;25.73;3.40;;;1.50;91.40;;;;;;5130025;27;20036;-75
2021/01/18 02:59:15;;;;;;;18.75;3.45;;;1.50;91.40;;;;;;5122352;27;20174;-75
2021/01/18 03:02:10;;;;;;;21.40;4.05;;;1.60;91.50;;;;;;5125071;27;20470;-75
2021/01/18 03:05:00;;;;;;;32.72;4.43;;;1.60;91.50;;;;;;5124930;27;20031;-75
2021/01/18 03:07:33;;;;;;;27.42;4.05;;;1.70;91.50;;;;;;5122822;27;20118;-75
2021/01/18 03:10:07;;;;;;;22.20;3.33;;;1.60;91.50;;;;;;5105456;27;20383;-75
2021/01/18 03:12:48;;;;;;;25.83;3.45;;;1.60;91.40;;;;;;5123543;27;20039;-75
2021/01/18 03:15:15;;;;;;;23.70;3.00;;;1.70;91.50;;;;;;5123299;27;20045;-75
2021/01/18 03:17:43;;;;;;;24.55;3.15;;;1.70;91.40;;;;;;5105251;27;20640;-75
2021/01/18 03:20:10;;;;;;;19.58;4.00;;;1.70;91.50;;;;;;5122853;27;20039;-75
2021/01/18 03:22:37;;;;;;;25.45;3.05;;;1.70;91.50;;;;;;5124575;27;20035;-75
2021/01/18 03:25:06;;;;;;;23.17;3.55;;;1.70;91.50;;;;;;5107647;27;20564;-75
2021/01/18 03:27:50;;;;;;;19.70;3.00;;;1.70;91.50;;;;;;5121271;27;20044;-75
2021/01/18 03:30:18;;;;;;;21.02;3.28;;;1.70;91.50;;;;;;5126684;27;20374;-75
2021/01/18 03:32:47;;;;;;;28.98;3.72;;;1.70;91.40;;;;;;5127841;27;20042;-75
2021/01/18 03:35:13;;;;;;;21.25;4.03;;;1.60;91.40;;;;;;5123965;27;20039;-75
2021/01/18 03:37:38;;;;;;;23.00;3.55;;;1.60;91.50;;;;;;5128578;27;20505;-75
2021/01/18 03:40:05;;;;;;;26.27;3.78;;;1.60;91.60;;;;;;5122152;27;20043;-76
2021/01/18 03:42:31;;;;;;;19.08;3.60;;;1.50;91.50;;;;;;5105796;27;20132;-75
2021/01/18 03:44:56;;;;;;;22.02;3.22;;;1.50;91.50;;;;;;5124072;27;20494;-75
2021/01/18 03:47:22;;;;;;;19.25;2.90;;;1.50;91.50;;;;;;5123326;27;20115;-75
2021/01/18 03:49:48;;;;;;;28.52;3.35;;;1.50;91.50;;;;;;5125008;27;20041;-75
2021/01/18 03:52:14;;;;;;;22.65;3.83;;;1.50;91.50;;;;;;5109188;27;20045;-75
2021/01/18 03:54:40;;;;;;;20.13;3.10;;;1.50;91.50;;;;;;5124893;27;20038;-75
2021/01/18 03:57:05;;;;;;;23.67;4.50;;;1.50;91.60;;;;;;5125838;27;20424;-75
2021/01/18 03:59:31;;;;;;;34.05;3.67;;;1.60;91.70;;;;;;5126522;27;20047;-75
2021/01/18 04:01:57;;;;;;;27.83;3.87;;;1.70;91.70;;;;;;5122871;27;20075;-75
2021/01/18 04:04:22;;;;;;;24.52;3.30;;;1.70;91.70;;;;;;5107556;27;20134;-75
2021/01/18 04:06:48;;;;;;;26.40;3.42;;;1.80;91.70;;;;;;5126567;27;20035;-75
2021/01/18 04:09:14;;;;;;;19.55;3.00;;;1.80;91.70;;;;;;5121130;27;20031;-75
2021/01/18 04:11:40;;;;;;;28.88;3.35;;;1.80;91.70;;;;;;5127043;27;20071;-75
2021/01/18 04:14:06;;;;;;;19.50;2.67;;;1.90;91.60;;;;;;5126208;27;20165;-75
2021/01/18 04:16:38;;;;;;;15.52;3.10;;;1.90;91.70;;;;;;5122479;27;20077;-74
2021/01/18 04:19:04;;;;;;;13.07;2.55;;;1.90;91.60;;;;;;5120794;27;20039;-74
2021/01/18 04:21:30;;;;;;;24.73;3.13;;;1.90;91.50;;;;;;5121634;27;20035;-74
2021/01/18 04:23:56;;;;;;;19.05;3.45;;;1.90;91.60;;;;;;5105645;27;20535;-74
2021/01/18 04:26:22;;;;;;;20.55;3.92;;;1.90;91.50;;;;;;5120629;27;20137;-74
2021/01/18 04:28:48;;;;;;;17.38;3.47;;;1.90;91.50;;;;;;5117066;27;20526;-75
2021/01/18 04:31:13;;;;;;;18.95;3.33;;;1.90;91.50;;;;;;5123102;27;20062;-75
2021/01/18 04:33:39;;;;;;;18.00;2.70;;;1.90;91.50;;;;;;5127754;27;20547;-75
2021/01/18 04:36:05;;;;;;;17.50;3.47;;;1.90;91.50;;;;;;5103983;27;20035;-75
2021/01/18 04:38:31;;;;;;;18.05;3.95;;;1.90;91.50;;;;;;5105734;27;20042;-75
2021/01/18 04:40:56;;;;;;;19.08;4.22;;;1.90;91.50;;;;;;5126543;27;20109;-75
2021/01/18 04:43:22;;;;;;;22.27;3.78;;;1.90;91.60;;;;;;5105480;27;20046;-75
2021/01/18 04:45:51;;;;;;;22.63;4.10;;;1.90;91.60;;;;;;5094788;27;20035;-75
2021/01/18 04:48:17;;;;;;;24.38;4.97;;;1.90;91.60;;;;;;5127541;27;20046;-75
2021/01/18 04:50:43;;;;;;;21.58;3.17;;;2.00;91.50;;;;;;5126902;27;20039;-75
2021/01/18 04:53:17;;;;;;;19.80;3.63;;;2.00;91.50;;;;;;5124979;27;20035;-75
2021/01/18 04:56:02;;;;;;;13.90;2.85;;;2.00;91.50;;;;;;5121241;27;20036;-74
2021/01/18 04:58:31;;;;;;;18.40;2.97;;;2.00;91.50;;;;;;5119778;27;20344;-75
2021/01/18 05:01:03;;;;;;;18.75;3.17;;;2.00;91.50;;;;;;5109045;27;20047;-75
2021/01/18 05:03:34;;;;;;;16.50;3.70;;;2.10;91.60;;;;;;5129558;27;20072;-75
2021/01/18 05:06:26;;;;;;;23.35;3.70;;;2.10;91.60;;;;;;5128184;27;20038;-75
2021/01/18 05:09:20;;;;;;;30.98;4.00;;;2.10;91.60;;;;;;5125708;27;20035;-75
2021/01/18 05:11:48;;;;;;;19.83;3.10;;;2.10;91.50;;;;;;5125555;27;20039;-75
2021/01/18 05:14:16;;;;;;;23.73;4.75;;;2.10;91.70;;;;;;5126172;27;20042;-75
2021/01/18 05:16:55;;;;;;;21.67;3.30;;;2.20;91.60;;;;;;5124065;27;20035;-74
2021/01/18 05:19:23;;;;;;;21.98;3.45;;;2.20;91.50;;;;;;5129798;27;20703;-74
2021/01/18 05:21:49;;;;;;;20.98;3.88;;;2.30;91.60;;;;;;5123604;27;20046;-74
2021/01/18 05:24:20;;;;;;;18.42;4.30;;;2.30;91.60;;;;;;5124323;27;20456;-73
2021/01/18 05:27:02;;;;;;;25.33;3.63;;;2.40;91.50;;;;;;5121748;27;20040;-74
2021/01/18 05:29:33;;;;;;;19.75;3.22;;;2.30;91.50;;;;;;5124817;27;20040;-74
2021/01/18 05:31:59;;;;;;;23.08;4.05;;;2.40;91.40;;;;;;5124722;27;20120;-74
2021/01/18 05:34:28;;;;;;;20.17;4.18;;;2.40;91.40;;;;;;5129329;27;20365;-74
2021/01/18 05:36:55;;;;;;;20.30;4.10;;;2.40;91.40;;;;;;5122596;27;20046;-74
2021/01/18 05:39:32;;;;;;;26.75;4.75;;;2.40;91.30;;;;;;5107897;27;20062;-74
2021/01/18 05:41:59;;;;;;;19.48;4.25;;;2.40;91.30;;;;;;5125149;27;20597;-74
2021/01/18 05:44:36;;;;;;;16.25;4.13;;;2.40;91.30;;;;;;5125578;27;20035;-74
2021/01/18 05:47:08;;;;;;;16.63;3.38;;;2.40;91.30;;;;;;5122825;27;20047;-74
2021/01/18 05:49:46;;;;;;;17.17;3.58;;;2.40;91.30;;;;;;5126638;27;20030;-77
2021/01/18 05:52:45;;;;;;;19.73;3.92;;;2.40;91.30;;;;;;5150277;27;20398;-76
2021/01/18 05:55:13;;;;;;;16.77;3.67;;;2.40;91.40;;;;;;5089491;27;20069;-77
2021/01/18 05:58:02;;;;;;;17.73;3.92;;;2.40;91.30;;;;;;5138218;27;20030;-76
2021/01/18 06:00:33;;;;;;;20.58;4.38;;;2.50;91.30;;;;;;5125359;27;20486;-74
2021/01/18 06:03:04;;;;;;;29.40;4.78;;;2.50;91.30;;;;;;5125918;27;20100;-74
2021/01/18 06:05:33;;;;;;;20.17;4.40;;;2.50;91.30;;;;;;5125664;27;20050;-74
2021/01/18 06:08:18;;;;;;;17.98;4.00;;;2.60;91.30;;;;;;5122940;27;20394;-74
2021/01/18 06:10:46;;;;;;;24.55;4.88;;;2.60;91.50;;;;;;5124894;27;20050;-75
2021/01/18 06:13:32;;;;;;;30.27;4.40;;;2.60;91.30;;;;;;5120918;27;20113;-75
2021/01/18 06:16:01;;;;;;;22.83;4.03;;;2.70;91.40;;;;;;5128280;27;20436;-74
2021/01/18 06:18:31;;;;;;;22.55;3.92;;;2.80;91.50;;;;;;5124680;27;20043;-74
2021/01/18 06:20:58;;;;;;;28.67;4.38;;;2.80;91.40;;;;;;5123471;27;20131;-74
2021/01/18 06:23:24;;;;;;;28.17;4.80;;;2.80;91.40;;;;;;5123215;27;20039;-74
2021/01/18 06:25:52;;;;;;;23.08;4.10;;;2.90;91.40;;;;;;5122260;27;20054;-74
2021/01/18 06:28:31;;;;;;;23.42;4.65;;;2.90;91.30;;;;;;5122188;27;20064;-74
2021/01/18 06:31:06;;;;;;;18.77;4.75;;;2.90;91.30;;;;;;5124590;27;20529;-74
2021/01/18 06:33:45;;;;;;;23.48;4.22;;;3.00;91.30;;;;;;5120155;27;20039;-74
2021/01/18 06:36:25;;;;;;;20.38;4.70;;;2.90;91.30;;;;;;5123776;27;20509;-74
2021/01/18 06:39:03;;;;;;;23.40;4.47;;;2.90;91.30;;;;;;5122186;27;20031;-74
2021/01/18 06:41:30;;;;;;;19.30;4.60;;;2.90;91.30;;;;;;5125035;27;20107;-75
2021/01/18 06:43:56;;;;;;;17.05;4.65;;;3.00;91.30;;;;;;5123062;27;22738;-75
2021/01/18 06:46:36;;;;;;;23.90;5.68;;;3.00;91.30;;;;;;5122417;27;20493;-75
2021/01/18 06:49:03;;;;;;;30.70;6.03;;;3.00;91.20;;;;;;5124010;27;20118;-75
2021/01/18 06:51:31;;;;;;;30.92;5.50;;;3.00;91.30;;;;;;5123577;27;20036;-74
2021/01/18 06:53:59;;;;;;;18.60;4.43;;;3.00;91.30;;;;;;5138330;27;20115;-74
2021/01/18 06:56:54;;;;;;;22.20;5.45;;;3.00;91.30;;;;;;5122191;27;20138;-74
2021/01/18 06:59:44;;;;;;;20.60;4.93;;;3.00;91.30;;;;;;5127515;27;20117;-75
2021/01/18 07:02:10;;;;;;;33.00;5.60;;;3.10;91.30;;;;;;5121217;27;20450;-75
2021/01/18 07:04:45;;;;;;;29.23;5.57;;;3.10;91.40;;;;;;5118741;27;20036;-75
2021/01/18 07:07:24;;;;;;;24.02;5.05;;;3.10;91.40;;;;;;5117829;27;20074;-75
2021/01/18 07:10:03;;;;;;;20.95;4.97;;;3.10;91.30;;;;;;5123685;27;20390;-75
2021/01/18 07:12:29;;;;;;;22.00;5.90;;;3.20;91.40;;;;;;5119564;27;20032;-75
2021/01/18 07:15:04;;;;;;;26.42;6.15;;;3.20;91.30;;;;;;5121150;27;20039;-75
2021/01/18 07:17:42;;;;;;;25.75;6.43;;;3.20;91.30;;;;;;5121352;27;20039;-75
2021/01/18 07:20:23;;;;;;;29.15;6.68;;;3.20;91.30;;;;;;5124689;27;20061;-75
2021/01/18 07:23:28;;;;;;;21.20;6.72;;;3.20;91.30;;;;;;5122197;27;20031;-75
2021/01/18 07:26:30;;;;;;;27.45;6.75;;;3.20;91.20;;;;;;5059298;27;20221;-75
2021/01/18 07:29:02;;;;;;;24.15;6.45;;;3.20;91.30;;;;;;5110809;27;20459;-75
2021/01/18 07:31:29;;;;;;;27.75;7.05;;;3.30;91.40;;;;;;5121744;27;20043;-76
2021/01/18 07:33:56;;;;;;;27.50;6.75;;;3.30;91.30;;;;;;5123242;27;20166;-75
2021/01/18 07:36:29;;;;;;;31.95;8.32;;;3.30;91.30;;;;;;5119870;27;20039;-75
2021/01/18 07:38:55;;;;;;;;;;;3.30;91.30;;;;;;5124011;27;20077;-76
2021/01/18 07:41:30;;;;;;;24.45;6.90;;;3.40;91.30;;;;;;5101639;27;20283;-75
2021/01/18 07:43:56;;;;;;;20.15;7.00;;;3.30;91.40;;;;;;5121617;27;20039;-75
2021/01/18 07:46:25;;;;;;;26.75;7.88;;;3.40;91.40;;;;;;5123151;27;20038;-75
2021/01/18 07:49:23;;;;;;;26.75;7.15;;;3.40;91.30;;;;;;5120012;27;20063;-74
2021/01/18 07:51:49;;;;;;;31.20;8.35;;;3.50;91.40;;;;;;5126384;27;20137;-75
2021/01/18 07:54:34;;;;;;;29.88;8.40;;;3.50;91.40;;;;;;5121030;27;20119;-74
2021/01/18 07:57:33;;;;;;;36.40;7.95;;;3.50;91.30;;;;;;5120461;27;20546;-74
2021/01/18 08:00:19;;;;;;;27.10;7.40;;;3.50;91.30;;;;;;5122314;27;20042;-74
2021/01/18 08:02:53;;;;;;;27.50;7.93;;;3.50;91.30;;;;;;5122250;27;20543;-74
2021/01/18 08:05:20;;;;;;;32.58;8.45;;;3.60;91.20;;;;;;5121653;27;20061;-74
2021/01/18 08:08:05;;;;;;;30.73;9.00;;;3.50;91.20;;;;;;5109119;27;20450;-74
2021/01/18 08:11:03;;;;;;;32.70;8.85;;;3.50;91.20;;;;;;5121610;27;20062;-74
2021/01/18 08:13:32;;;;;;;29.63;8.38;;;3.50;91.20;;;;;;5077416;27;20138;-74
2021/01/18 08:16:09;;;;;;;29.27;9.57;;;3.60;91.30;;;;;;5122092;27;20106;-74
2021/01/18 08:18:35;;;;;;;33.95;9.55;;;3.60;91.20;;;;;;5120438;27;21214;-74
2021/01/18 08:21:20;;;;;;;36.65;9.20;;;3.60;91.30;;;;;;5111458;27;20031;-74
2021/01/18 08:23:47;;;;;;;32.05;8.68;;;3.60;91.30;;;;;;5123482;27;20047;-74
2021/01/18 08:26:14;;;;;;;27.52;9.48;;;3.60;91.30;;;;;;5127387;27;20061;-74
2021/01/18 08:28:48;;;;;;;34.05;9.55;;;3.70;91.40;;;;;;5126784;27;20039;-74
2021/01/18 08:31:14;;;;;;;30.35;8.40;;;3.70;91.40;;;;;;5127077;27;20058;-74
2021/01/18 08:33:40;;;;;;;32.42;8.57;;;3.70;91.30;;;;;;5111561;27;20059;-74
2021/01/18 08:36:06;;;;;;;30.33;9.43;;;3.80;91.30;;;;;;5109910;27;20027;-74
2021/01/18 08:38:32;;;;;;;31.75;8.40;;;3.80;91.30;;;;;;5119670;27;20036;-73
2021/01/18 08:41:09;;;;;;;22.90;7.68;;;3.80;91.20;;;;;;5118826;27;20051;-74
2021/01/18 08:43:45;;;;;;;26.17;8.77;;;3.80;91.50;;;;;;5120734;27;20166;-74
2021/01/18 08:46:31;;;;;;;24.27;8.20;;;3.80;91.30;;;;;;5119891;27;20035;-74
2021/01/18 08:49:31;;;;;;;31.88;8.68;;;3.90;91.30;;;;;;5133885;27;20043;-74
2021/01/18 08:51:58;;;;;;;31.33;9.48;;;3.90;91.30;;;;;;5126904;27;20042;-75
2021/01/18 08:54:38;;;;;;;29.95;8.73;;;3.90;91.20;;;;;;5123897;27;20134;-75
2021/01/18 08:57:23;;;;;;;24.67;8.52;;;4.00;91.30;;;;;;5123859;27;20080;-75
2021/01/18 09:00:10;;;;;;;24.73;8.60;;;4.00;91.20;;;;;;5122550;27;20034;-76
2021/01/18 09:02:39;;;;;;;30.40;8.90;;;4.00;91.20;;;;;;5127967;27;20035;-76
2021/01/18 09:05:19;;;;;;;32.28;9.07;;;4.10;91.20;;;;;;5120245;27;20175;-76
2021/01/18 09:07:47;;;;;;;40.60;10.40;;;4.10;91.30;;;;;;5123630;27;20535;-76
2021/01/18 09:10:21;;;;;;;26.98;8.82;;;4.20;91.30;;;;;;5119213;27;20517;-75
2021/01/18 09:12:48;;;;;;;29.80;8.32;;;4.20;91.30;;;;;;5121624;27;20050;-75
2021/01/18 09:15:16;;;;;;;31.08;7.85;;;4.20;91.30;;;;;;5124452;27;20035;-74
2021/01/18 09:17:42;;;;;;;23.50;8.27;;;4.30;91.30;;;;;;5121455;27;20120;-74
2021/01/18 09:20:09;;;;;;;32.92;8.55;;;4.30;91.30;;;;;;5120931;27;20035;-75
2021/01/18 09:22:40;;;;;;;29.50;8.63;;;4.30;91.30;;;;;;5120486;27;20027;-75
2021/01/18 09:25:07;;;;;;;33.55;9.05;;;4.30;91.30;;;;;;5120903;27;20031;-73
2021/01/18 09:27:35;;;;;;;34.50;9.32;;;4.40;91.20;;;;;;5120349;27;20053;-75
2021/01/18 09:30:08;;;;;;;31.02;9.30;;;4.50;91.20;;;;;;5108427;27;20047;-75
2021/01/18 09:32:37;;;;;;;;;;;4.50;91.20;;;;;;5120948;27;20391;-74
2021/01/18 09:35:11;;;;;;;32.20;9.60;;;4.50;91.20;;;;;;5118176;27;19965;-74
2021/01/18 09:37:46;;;;;;;26.17;9.10;;;4.50;91.30;;;;;;5119642;27;20047;-74
2021/01/18 09:40:13;;;;;;;37.20;10.73;;;4.50;91.20;;;;;;5121200;27;20107;-75
2021/01/18 09:42:44;;;;;;;29.80;8.98;;;4.60;91.10;;;;;;5119241;27;20035;-74
2021/01/18 09:45:11;;;;;;;36.88;9.40;;;4.60;91.10;;;;;;5119785;27;22210;-74
2021/01/18 09:47:37;;;;;;;27.40;8.10;;;4.60;91.10;;;;;;5101474;27;20058;-74
2021/01/18 09:50:06;;;;;;;26.38;7.45;;;4.60;91.10;;;;;;5122376;27;20450;-74
2021/01/18 09:52:33;;;;;;;30.73;8.10;;;4.70;91.10;;;;;;5122780;27;20093;-74
2021/01/18 09:55:01;;;;;;;25.52;9.18;;;4.70;91.10;;;;;;5122768;27;20042;-74
2021/01/18 09:57:29;;;;;;;36.08;9.30;;;4.70;91.10;;;;;;5123542;27;20535;-74
2021/01/18 09:59:56;;;;;;;33.42;8.88;;;4.70;91.00;;;;;;5106795;27;20036;-74
2021/01/18 10:02:24;;;;;;;24.20;8.48;;;4.70;91.00;;;;;;5122343;27;20045;-74
2021/01/18 10:04:52;;;;;;;30.67;8.20;;;4.70;91.00;;;;;;5126590;27;20067;-72
2021/01/18 10:07:21;;;;;;;32.65;8.95;;;4.80;91.10;;;;;;5117896;27;20162;-74
2021/01/18 10:09:47;;;;;;;27.38;8.25;;;4.80;91.00;;;;;;5117658;27;20043;-73
2021/01/18 10:12:14;;;;;;;35.45;7.70;;;4.80;91.00;;;;;;5115052;27;20069;-74
2021/01/18 10:14:53;;;;;;;29.85;7.68;;;4.80;91.00;;;;;;5116111;27;20228;-74
2021/01/18 10:17:29;;;;;;;27.02;7.45;;;4.80;91.00;;;;;;5120280;27;20038;-74
2021/01/18 10:20:07;;;;;;;27.50;7.72;;;4.90;91.00;;;;;;5115879;27;20039;-73
2021/01/18 10:22:37;;;;;;;23.30;7.28;;;4.90;91.10;;;;;;5115400;27;20043;-73
2021/01/18 10:25:10;;;;;;;24.38;8.05;;;4.90;91.00;;;;;;5118318;27;20054;-72
2021/01/18 10:27:36;;;;;;;;;;;4.90;91.00;;;;;;5118167;27;20050;-73
2021/01/18 10:30:13;;;;;;;22.13;8.15;;;4.90;91.20;;;;;;5111817;27;20563;-73
2021/01/18 10:32:44;;;;;;;32.55;8.10;;;4.90;91.10;;;;;;5115254;27;20077;-72
2021/01/18 10:35:20;;;;;;;30.63;7.90;;;5.00;91.10;;;;;;5115960;27;20039;-72
2021/01/18 10:37:46;;;;;;;23.30;6.45;;;5.00;91.10;;;;;;5118792;27;20123;-72
2021/01/18 10:40:13;;;;;;;27.75;6.97;;;5.00;91.10;;;;;;5117795;27;20133;-72
2021/01/18 10:42:51;;;;;;;31.67;7.57;;;5.00;91.10;;;;;;5116635;27;20497;-71
2021/01/18 10:45:19;;;;;;;28.48;6.75;;;5.00;91.10;;;;;;5115468;27;20070;-72
2021/01/18 10:47:56;;;;;;;30.25;6.95;;;5.00;91.00;;;;;;5102961;27;20043;-73
2021/01/18 10:50:24;;;;;;;25.52;7.03;;;5.00;91.00;;;;;;5112889;27;20578;-73
2021/01/18 10:52:59;;;;;;;21.60;5.50;;;5.10;91.10;;;;;;5116370;27;20031;-73
2021/01/18 10:55:25;;;;;;;25.20;5.38;;;5.10;91.10;;;;;;5117479;27;20030;-73
2021/01/18 10:57:52;;;;;;;18.17;5.25;;;5.10;91.10;;;;;;5120487;27;20047;-72
2021/01/18 11:00:23;;;;;;;24.08;7.18;;;5.20;91.10;;;;;;5118922;27;20047;-72
2021/01/18 11:02:56;;;;;;;22.17;5.55;;;5.20;91.10;;;;;;5118061;27;20562;-73
2021/01/18 11:05:36;;;;;;;24.83;5.03;;;5.20;91.10;;;;;;5116403;27;20035;-72
2021/01/18 11:08:05;;;;;;;22.83;5.70;;;5.20;91.10;;;;;;5116574;27;20035;-74
2021/01/18 11:10:32;;;;;;;22.63;5.63;;;5.20;91.20;;;;;;5115559;27;20058;-73
2021/01/18 11:13:03;;;;;;;26.60;4.78;;;5.20;91.20;;;;;;5116013;27;20069;-74
2021/01/18 11:15:31;;;;;;;30.10;5.30;;;5.20;91.20;;;;;;5117355;27;20046;-73
2021/01/18 11:17:57;;;;;;;24.67;5.20;;;5.20;91.20;;;;;;5120245;27;20035;-72
2021/01/18 11:20:29;;;;;;;27.58;6.78;;;5.20;91.20;;;;;;5114817;27;20071;-73
2021/01/18 11:22:55;;;;;;;19.35;4.40;;;5.20;91.20;;;;;;5119634;27;20033;-75
2021/01/18 11:25:21;;;;;;;20.40;4.30;;;5.30;91.30;;;;;;5120855;27;20031;-75
2021/01/18 11:27:47;;;;;;;24.80;4.82;;;5.30;91.20;;;;;;5123779;27;20066;-75
2021/01/18 11:30:15;;;;;;;20.70;4.93;;;5.30;91.20;;;;;;5120307;27;20047;-75
2021/01/18 11:32:41;;;;;;;19.42;5.10;;;5.30;91.20;;;;;;5123499;27;20035;-75
2021/01/18 11:35:09;;;;;;;18.75;4.65;;;5.30;91.30;;;;;;5121661;27;20072;-72
2021/01/18 11:37:35;;;;;;;19.02;5.22;;;5.30;91.40;;;;;;5113967;27;20058;-71
2021/01/18 11:40:07;;;;;;;26.65;5.88;;;5.30;91.50;;;;;;5118256;27;20031;-73
2021/01/18 11:42:33;;;;;;;23.35;4.57;;;5.30;91.50;;;;;;5105996;27;20063;-71
2021/01/18 11:45:01;;;;;;;20.00;4.60;;;5.30;91.60;;;;;;5119255;27;20077;-71
2021/01/18 11:47:54;;;;;;;19.33;4.63;;;5.30;91.70;;;;;;5119057;27;20135;-71
2021/01/18 11:50:20;;;;;;;23.77;4.93;;;5.30;91.80;;;;;;5117652;27;20059;-71
2021/01/18 11:52:57;;;;;;;19.58;4.40;;;5.30;92.00;;;;;;5122580;27;20137;-71
2021/01/18 11:55:23;;;;;;;24.52;4.50;;;5.30;92.20;;;;;;5118334;27;20046;-71
2021/01/18 11:57:50;;;;;;;20.98;5.93;;;5.30;91.90;;;;;;5118863;27;20052;-71
2021/01/18 12:00:25;;;;;;;22.08;4.63;;;5.30;91.90;;;;;;5120022;27;20043;-72
2021/01/18 12:02:57;;;;;;;17.27;4.03;;;5.20;91.90;;;;;;5119940;27;20034;-71
2021/01/18 12:05:27;;;;;;;15.93;4.17;;;5.20;91.90;;;;;;5119639;27;20050;-71
2021/01/18 12:07:57;;;;;;;19.75;4.40;;;5.30;91.90;;;;;;5121113;27;20114;-71
2021/01/18 12:10:26;;;;;;;19.52;3.78;;;5.20;91.90;;;;;;5119415;27;20079;-71
2021/01/18 12:12:52;;;;;;;16.52;4.00;;;5.20;91.90;;;;;;5119803;27;20039;-71
2021/01/18 12:15:18;;;;;;;20.23;3.65;;;5.30;92.00;;;;;;5118337;27;20034;-70
2021/01/18 12:17:44;;;;;;;19.08;4.32;;;5.20;91.90;;;;;;5119814;27;20873;-71
2021/01/18 12:20:13;;;;;;;16.15;4.03;;;5.20;92.00;;;;;;5112562;27;20031;-71
2021/01/18 12:22:38;;;;;;;15.93;3.47;;;5.30;92.10;;;;;;5119014;27;20039;-71
2021/01/18 12:25:07;;;;;;;24.02;3.95;;;5.30;92.00;;;;;;5110707;27;20038;-71
2021/01/18 12:27:34;;;;;;;19.13;4.28;;;5.30;92.00;;;;;;5117666;27;20039;-71
2021/01/18 12:30:01;;;;;;;20.38;3.92;;;5.40;92.00;;;;;;5119337;27;20211;-71
2021/01/18 12:32:27;;;;;;;25.15;4.18;;;5.40;91.90;;;;;;5119556;27;20048;-72
2021/01/18 12:34:53;;;;;;;18.52;3.92;;;5.50;91.80;;;;;;5122740;27;20770;-71
2021/01/18 12:37:19;;;;;;;27.83;4.35;;;5.50;91.70;;;;;;5118236;27;20059;-71
2021/01/18 12:39:45;;;;;;;21.70;3.63;;;5.50;91.60;;;;;;5124166;27;20085;-71
2021/01/18 12:42:11;;;;;;;17.80;3.28;;;5.50;91.60;;;;;;5121674;27;20040;-71
2021/01/18 12:44:37;;;;;;;19.63;3.38;;;5.60;91.40;;;;;;5119132;27;20394;-71
2021/01/18 12:47:04;;;;;;;18.75;4.00;;;5.60;91.40;;;;;;5120278;27;20109;-71
2021/01/18 12:49:30;;;;;;;22.08;4.35;;;5.70;91.20;;;;;;5121313;27;20036;-71
2021/01/18 12:51:56;;;;;;;24.92;4.00;;;5.70;91.20;;;;;;5119433;27;20044;-72
2021/01/18 12:54:22;;;;;;;14.95;3.47;;;5.70;91.20;;;;;;5118411;27;20032;-72
2021/01/18 12:56:51;;;;;;;21.77;4.03;;;5.70;91.20;;;;;;5118202;27;20031;-72
2021/01/18 12:59:18;;;;;;;17.65;4.90;;;5.70;91.10;;;;;;5119583;27;20421;-72
2021/01/18 13:01:44;;;;;;;21.20;3.50;;;5.80;91.00;;;;;;5120376;27;20039;-72
2021/01/18 13:04:11;;;;;;;18.85;3.83;;;5.80;91.00;;;;;;5122657;27;20035;-72
2021/01/18 13:06:44;;;;;;;19.88;3.65;;;5.90;90.90;;;;;;5118748;27;20055;-72
2021/01/18 13:09:12;;;;;;;21.25;4.18;;;5.90;90.90;;;;;;5118723;27;20440;-72